Terminal Aerodrome Forecast
Issued by NWS

Current Version | Previous Version | Text Only | Print | Product List | Glossary Off
Versions: 1 2 3 4 5 6 7 8 9 10 11 12 13 14 15 16 17 18 19 20 21 22 23 24 25 26 27 28 29 30

000
FTUS41 KRLX 250900 AAA
TAFCKB
TAF AMD
KCKB 250902Z 2509/2606 25007KT 6SM BR BKN012 OVC035
     FM251500 20007KT P6SM SCT015
     FM252300 00000KT 6SM -RA OVC045
     FM260100 00000KT 5SM -RA OVC040=

USA.gov is the U.S. government's official web portal to all federal, state and local government web resources and services.